Airfield :
LOGIN :

Register | Disclaimer

   EN    FR    IT 

 










Legend :    VFR   Marginal VFR   IFR   Intensive IFR   Very Intensive IFR
Visi :
Ceiling :
>= 8 km
>= 3000ft
5 to 8 km
1000 to 3000 ft
1500m to 5 km
500 to 1000 ft
800 to 1500m
200 to 500 ft
< 800m
< 200 ft
Symbols :   Thunderstorms  Fog  Heavy snow  Heavy precipitations  Wind > 20 kt
SIGMETs :     Misc.  Thunderstorms  Icing  Turbulence  Mountain Waves  Volcanic Ashes







- Airport Elevation : 52 ft
- IATA code : RNN


EKRN - Bornholm Ronne

CURRENT METAR :
  • 211620Z 36002KT 9999 SCT019 M00/M01 Q1016 R99/710095

EXPIRED METARs :
  • 211550Z 29002KT 9999 FEW037 M00/M02 Q1016 R99/710095
  • 211520Z 25002KT 9999 FEW037 02/M01 Q1016 R99/710095
  • 211450Z 24003KT 9999 FEW037 02/M01 Q1016 R99/710095
  • 211420Z AUTO 23003KT 9999NDV BKN061/// 03/M00 Q1016 R99/710095
  • 211350Z AUTO 25003KT 9999NDV NCD 03/M00 Q1015 R99/710095

TAF TAF EKRN
Valid from the 21 at 15:00 until the 21 at 23:00 UTC


211412Z 2115/2123 VRB03KT 9999 SCT030
TEMPO 2115/2121 BKN010
No reported NOTAMs for that airfield.



MET'MAP, your aeronautical weather chart ! - Copyright ORBIFLY December 2007 - Disclaimer

ORBIFLY MET'MAP TEAM :

Programming & Development : Alexandra Zaïnal
Concept & Development : Baudouin d'Aumeries
Co-Development & Prog : Marc-Olivier Méhu
Technical & hardware support : Manuel Goepfert

Contact : metmap@orbifly.com




SOURCES & CREDITS :

   NOAA